ENBV

Berlevåg Airport

Berlevåg, Norway
METAR ENBV 211250Z 04013KT 1200 SHSNGR VV008 M05/M06 Q1019
Observed Flight Rules
Feb-21 @ 12:50 UTC (22 minutes ago) Instrument Flight Rules
Wind Visibility Clouds Conditions
40° at 13 knots 1,207 meters
  • Vertical visibility at 800' AGL
  • Snow
  • Hail
Temperatures Readings
Current -5°C / 23°F
Dewpoint -6°C / 21°F
Humidity 93%
Altimeter 30.09" Hg
Pressure 1019 hPa
Elevation 13
METAR ENBV 211250Z 04013KT 1200 SHSNGR VV008 M05/M06 Q1019
Observed Flight Rules
Feb-21 @ 12:50 UTC
(22 minutes ago)
LIFR
Wind Visibility
40° at 13 knots 1,207 meters
Clouds
  • Vertical visibility at 800' AGL
Conditions
  • Snow
  • Hail
Temperature Dewpoint
-5°C / 23°F -6°C / 21°F
Humidity Altimeter Pressure
93% 30.09" Hg 1019 hPa